createdAt,value
2022-10-16T00:01:12.751Z,12.80
2022-10-16T00:03:40.573Z,12.80
2022-10-16T00:06:08.647Z,12.80
2022-10-16T00:08:36.118Z,12.70
2022-10-16T00:11:13.018Z,12.60
2022-10-16T00:13:41.986Z,12.50
2022-10-16T00:16:10.255Z,12.60
2022-10-16T00:18:38.136Z,12.50
2022-10-16T00:21:11.145Z,12.50
2022-10-16T00:23:38.582Z,12.60
2022-10-16T00:26:08.825Z,12.60
2022-10-16T00:28:36.190Z,12.60
2022-10-16T00:31:12.094Z,12.50
2022-10-16T00:33:41.083Z,12.60
2022-10-16T00:36:11.273Z,12.70
2022-10-16T00:38:38.866Z,12.60
2022-10-16T00:41:11.510Z,12.60
2022-10-16T00:43:48.794Z,12.60
2022-10-16T00:46:20.823Z,12.60
2022-10-16T00:49:04.813Z,12.70
2022-10-16T00:51:39.630Z,12.60
2022-10-16T00:54:11.253Z,12.60
2022-10-16T00:56:38.346Z,12.60
2022-10-16T00:59:12.675Z,12.50
2022-10-16T01:01:39.489Z,12.50
2022-10-16T01:04:06.301Z,12.60
2022-10-16T01:06:40.918Z,12.60
2022-10-16T01:09:13.495Z,12.60
2022-10-16T01:11:50.997Z,12.50
2022-10-16T01:14:40.857Z,12.50
2022-10-16T01:17:25.998Z,12.40
2022-10-16T01:19:58.953Z,12.30
2022-10-16T01:22:50.424Z,12.30
2022-10-16T01:25:44.035Z,12.30
2022-10-16T01:28:13.814Z,12.30
2022-10-16T01:30:43.125Z,12.30
2022-10-16T01:33:17.729Z,12.30
2022-10-16T01:35:48.781Z,12.30
2022-10-16T01:38:30.630Z,12.30
2022-10-16T01:43:47.538Z,12.40
2022-10-16T01:46:16.981Z,12.50
2022-10-16T01:48:43.743Z,12.50
2022-10-16T01:51:14.315Z,12.50
2022-10-16T01:53:43.068Z,12.60
2022-10-16T01:56:12.942Z,12.70
2022-10-16T01:58:45.885Z,12.70
2022-10-16T02:04:16.730Z,12.60
2022-10-16T02:06:43.514Z,12.60
2022-10-16T02:09:10.687Z,12.50
2022-10-16T02:11:37.519Z,12.50
2022-10-16T02:14:07.531Z,12.40
2022-10-16T02:16:37.890Z,12.40
2022-10-16T02:19:06.296Z,12.40
2022-10-16T02:21:51.462Z,12.40
2022-10-16T02:24:40.499Z,12.40
2022-10-16T02:27:16.437Z,12.20
2022-10-16T02:29:51.059Z,12.20
2022-10-16T02:32:25.932Z,12.20
2022-10-16T02:34:53.205Z,12.30
2022-10-16T02:37:20.364Z,12.30
2022-10-16T02:39:47.095Z,12.30
2022-10-16T02:42:15.206Z,12.30
2022-10-16T02:44:42.023Z,12.20
2022-10-16T02:47:08.859Z,12.30
2022-10-16T02:49:35.822Z,12.30
2022-10-16T02:52:02.981Z,12.20
2022-10-16T02:54:29.745Z,12.20
2022-10-16T02:56:56.588Z,12.10
2022-10-16T02:59:23.410Z,12.20
2022-10-16T03:01:50.878Z,12.30
2022-10-16T03:04:17.654Z,12.30
2022-10-16T03:06:44.511Z,12.30
2022-10-16T03:09:11.339Z,12.20
2022-10-16T03:11:38.078Z,12.20
2022-10-16T03:14:04.816Z,12.20
2022-10-16T03:16:31.846Z,12.20
2022-10-16T03:18:58.674Z,12.30
2022-10-16T03:21:25.829Z,12.30
2022-10-16T03:23:52.570Z,12.40
2022-10-16T03:26:19.423Z,12.30
2022-10-16T03:28:46.290Z,12.30
2022-10-16T03:31:13.158Z,12.30
2022-10-16T03:33:40.022Z,12.30
2022-10-16T03:36:07.728Z,12.40
2022-10-16T03:38:34.706Z,12.40
2022-10-16T03:41:01.635Z,12.50
2022-10-16T03:43:28.417Z,12.40
2022-10-16T03:45:55.230Z,12.50
2022-10-16T03:48:21.978Z,12.50
2022-10-16T03:50:49.436Z,12.40
2022-10-16T03:53:16.550Z,12.30
2022-10-16T03:55:44.351Z,12.10
2022-10-16T03:58:11.849Z,12.10
2022-10-16T04:00:46.012Z,12.10
2022-10-16T04:03:13.230Z,12.00
2022-10-16T04:05:40.654Z,12.10
2022-10-16T04:08:07.454Z,12.00
2022-10-16T04:10:34.340Z,12.00
2022-10-16T04:13:01.081Z,12.00
2022-10-16T04:15:27.861Z,12.00
2022-10-16T04:17:54.886Z,12.10
2022-10-16T04:20:21.847Z,12.00
2022-10-16T04:22:48.717Z,12.00
2022-10-16T04:25:15.640Z,12.00
2022-10-16T04:27:45.271Z,11.90
2022-10-16T04:30:13.336Z,11.90
2022-10-16T04:32:40.282Z,12.00
2022-10-16T04:35:07.652Z,12.00
2022-10-16T04:37:34.604Z,12.00
2022-10-16T04:40:01.446Z,12.00
2022-10-16T04:42:28.297Z,12.00
2022-10-16T04:44:55.086Z,12.00
2022-10-16T04:47:22.538Z,12.00
2022-10-16T04:49:49.298Z,11.90
2022-10-16T04:52:16.231Z,11.90
2022-10-16T04:54:43.146Z,12.20
2022-10-16T04:57:09.947Z,12.10
2022-10-16T04:59:36.945Z,12.10
2022-10-16T05:02:04.058Z,12.10
2022-10-16T05:04:31.000Z,12.10
2022-10-16T05:06:57.801Z,12.20
2022-10-16T05:09:24.677Z,12.20
2022-10-16T05:11:51.485Z,12.20
2022-10-16T05:14:18.381Z,12.20
2022-10-16T05:16:45.449Z,12.10
2022-10-16T05:19:28.563Z,12.20
2022-10-16T05:21:56.218Z,12.20
2022-10-16T05:24:23.074Z,12.20
2022-10-16T05:26:50.626Z,12.30
2022-10-16T05:29:17.407Z,12.30
2022-10-16T05:31:44.273Z,12.30
2022-10-16T05:34:11.185Z,12.30
2022-10-16T05:36:37.972Z,12.30
2022-10-16T05:39:14.638Z,12.40
2022-10-16T05:41:41.402Z,12.40
2022-10-16T05:44:08.197Z,12.40
2022-10-16T05:46:34.933Z,12.50
2022-10-16T05:49:01.777Z,12.40
2022-10-16T05:51:28.675Z,12.30
2022-10-16T05:53:55.513Z,12.40
2022-10-16T05:56:22.350Z,12.40
2022-10-16T05:58:49.233Z,12.40
2022-10-16T06:01:21.840Z,12.30
2022-10-16T06:03:48.859Z,12.30
2022-10-16T06:06:21.571Z,12.40
2022-10-16T06:08:49.891Z,12.50
2022-10-16T06:11:22.511Z,12.50
2022-10-16T06:14:01.168Z,12.60
2022-10-16T06:16:28.366Z,12.60
2022-10-16T06:18:56.962Z,12.70
2022-10-16T06:21:26.034Z,12.70
2022-10-16T06:23:53.565Z,12.80
2022-10-16T06:26:23.076Z,12.80
2022-10-16T06:28:50.474Z,12.80
2022-10-16T06:31:18.369Z,12.90
2022-10-16T06:33:46.629Z,12.90
2022-10-16T06:36:16.007Z,12.90
2022-10-16T06:38:43.410Z,12.90
2022-10-16T06:41:13.855Z,12.90
2022-10-16T06:43:40.721Z,12.90
2022-10-16T06:46:10.652Z,12.90
2022-10-16T06:48:37.922Z,12.90
2022-10-16T06:51:11.365Z,12.80
2022-10-16T06:53:54.886Z,12.90
2022-10-16T06:56:31.038Z,12.90
2022-10-16T06:58:58.050Z,13.00
2022-10-16T07:01:25.537Z,13.10
2022-10-16T07:03:52.955Z,13.00
2022-10-16T07:06:22.742Z,13.00
2022-10-16T07:08:50.885Z,13.00
2022-10-16T07:11:21.144Z,13.00
2022-10-16T07:13:52.640Z,13.30
2022-10-16T07:16:25.183Z,13.90
2022-10-16T07:18:55.400Z,14.60
2022-10-16T07:21:23.851Z,15.40
2022-10-16T07:23:55.480Z,15.90
2022-10-16T07:26:23.505Z,16.50
2022-10-16T07:28:50.653Z,16.90
2022-10-16T07:31:19.127Z,17.10
2022-10-16T07:33:48.758Z,17.20
2022-10-16T07:36:20.045Z,17.40
2022-10-16T07:38:47.678Z,17.40
2022-10-16T07:41:17.367Z,17.60
2022-10-16T07:43:48.784Z,17.90
2022-10-16T07:46:15.953Z,18.10
2022-10-16T07:48:46.552Z,18.20
2022-10-16T07:51:15.659Z,18.20
2022-10-16T07:53:42.582Z,18.40
2022-10-16T07:56:10.085Z,18.50
2022-10-16T07:58:38.267Z,18.50
2022-10-16T08:01:10.720Z,18.70
2022-10-16T08:03:38.072Z,18.80
2022-10-16T08:06:05.946Z,18.70
2022-10-16T08:08:32.791Z,18.70
2022-10-16T08:10:59.943Z,18.60
2022-10-16T08:13:27.656Z,18.70
2022-10-16T08:15:55.484Z,18.90
2022-10-16T08:18:22.628Z,19.10
2022-10-16T08:20:55.679Z,19.10
2022-10-16T08:23:22.463Z,18.80
2022-10-16T08:25:49.217Z,18.30
2022-10-16T08:28:16.705Z,17.80
2022-10-16T08:30:43.499Z,17.60
2022-10-16T08:33:10.435Z,17.30
2022-10-16T08:35:38.226Z,17.20
2022-10-16T08:38:06.087Z,17.00
2022-10-16T08:40:35.446Z,16.90
2022-10-16T08:43:11.264Z,16.80
2022-10-16T08:45:41.230Z,16.80
2022-10-16T08:48:18.888Z,16.80
2022-10-16T08:50:47.929Z,16.70
2022-10-16T08:53:32.342Z,16.70
2022-10-16T08:55:59.604Z,16.70
2022-10-16T08:58:31.161Z,16.70
2022-10-16T09:01:01.983Z,16.70
2022-10-16T09:03:31.835Z,16.70
2022-10-16T09:06:19.940Z,16.60
2022-10-16T09:09:11.647Z,16.60
2022-10-16T09:12:05.201Z,16.50
2022-10-16T09:14:59.761Z,16.60
2022-10-16T09:18:01.933Z,16.60
2022-10-16T09:20:35.091Z,16.60
2022-10-16T09:23:05.054Z,16.70
2022-10-16T09:25:33.796Z,16.60
2022-10-16T09:28:00.579Z,16.70
2022-10-16T09:30:32.877Z,16.70
2022-10-16T09:33:00.302Z,16.70
2022-10-16T09:35:44.631Z,16.80
2022-10-16T09:38:27.550Z,16.80
2022-10-16T09:40:59.302Z,16.90
2022-10-16T09:43:43.353Z,16.80
2022-10-16T09:46:29.082Z,16.80
2022-10-16T09:49:01.566Z,16.90
2022-10-16T09:51:36.977Z,16.90
2022-10-16T09:54:09.606Z,16.90
2022-10-16T09:56:39.842Z,17.00
2022-10-16T09:59:13.923Z,17.10
2022-10-16T10:01:42.217Z,17.00
2022-10-16T10:04:09.815Z,17.00
2022-10-16T10:06:41.848Z,17.00
2022-10-16T10:09:23.227Z,17.10
2022-10-16T10:11:51.936Z,17.20
2022-10-16T10:14:21.863Z,17.30
2022-10-16T10:16:49.556Z,17.40
2022-10-16T10:19:19.403Z,17.50
2022-10-16T10:21:46.862Z,17.80
2022-10-16T10:24:15.968Z,17.90
2022-10-16T10:27:11.449Z,18.10
2022-10-16T10:29:52.065Z,18.20
2022-10-16T10:32:36.346Z,18.40
2022-10-16T10:35:23.121Z,18.50
2022-10-16T10:38:07.779Z,18.50
2022-10-16T10:40:51.873Z,18.50
2022-10-16T10:43:42.550Z,18.60
2022-10-16T10:46:24.584Z,18.80
2022-10-16T10:49:09.983Z,18.80
2022-10-16T10:51:53.532Z,18.80
2022-10-16T10:55:01.441Z,18.80
2022-10-16T10:57:45.190Z,18.90
2022-10-16T11:00:35.934Z,18.90
2022-10-16T11:03:44.079Z,18.90
2022-10-16T11:06:31.191Z,18.90
2022-10-16T11:09:19.184Z,18.80
2022-10-16T11:11:48.089Z,18.60
2022-10-16T11:14:27.445Z,18.70
2022-10-16T11:16:59.233Z,18.60
2022-10-16T11:19:45.653Z,18.80
2022-10-16T11:22:24.576Z,18.80
2022-10-16T11:25:21.895Z,19.00
2022-10-16T11:28:02.383Z,19.20
2022-10-16T11:30:32.456Z,19.30
2022-10-16T11:33:27.992Z,19.30
2022-10-16T11:36:14.165Z,19.40
2022-10-16T11:38:50.442Z,19.40
2022-10-16T11:41:27.839Z,19.40
2022-10-16T11:44:31.364Z,19.40
2022-10-16T11:50:44.634Z,19.40
2022-10-16T11:53:22.976Z,19.20
2022-10-16T11:55:53.031Z,19.20
2022-10-16T11:58:34.408Z,19.10
2022-10-16T12:01:10.549Z,19.10
2022-10-16T12:03:44.948Z,19.20
2022-10-16T12:06:31.843Z,19.30
2022-10-16T12:09:01.509Z,19.30
2022-10-16T12:11:37.957Z,19.30
2022-10-16T12:14:21.080Z,19.20
2022-10-16T12:17:00.793Z,18.90
2022-10-16T12:19:30.647Z,18.90
2022-10-16T12:22:00.797Z,18.80
2022-10-16T12:24:43.689Z,18.70
2022-10-16T12:27:39.901Z,18.70
2022-10-16T12:30:07.596Z,18.40
2022-10-16T12:32:48.200Z,18.40
2022-10-16T12:35:24.665Z,18.30
2022-10-16T12:37:52.919Z,18.30
2022-10-16T12:40:28.215Z,18.40
2022-10-16T12:42:55.113Z,18.50
2022-10-16T12:45:33.833Z,18.40
2022-10-16T12:48:03.233Z,18.30
2022-10-16T12:50:41.984Z,18.10
2022-10-16T12:53:24.561Z,18.10
2022-10-16T12:56:20.115Z,18.10
2022-10-16T12:58:58.178Z,18.20
2022-10-16T13:01:37.871Z,18.20
2022-10-16T13:04:04.873Z,18.30
2022-10-16T13:06:47.154Z,18.20
2022-10-16T13:09:52.201Z,18.10
2022-10-16T13:13:12.338Z,18.10
2022-10-16T13:15:56.950Z,18.10
2022-10-16T13:18:28.204Z,18.20
2022-10-16T13:21:23.295Z,18.30
2022-10-16T13:24:20.570Z,18.30
2022-10-16T13:26:53.105Z,18.40
2022-10-16T13:29:20.734Z,18.60
2022-10-16T13:31:48.025Z,18.70
2022-10-16T13:34:18.515Z,18.80
2022-10-16T13:36:51.570Z,19.00
2022-10-16T13:39:28.705Z,19.00
2022-10-16T13:42:09.021Z,19.00
2022-10-16T13:44:50.374Z,19.10
2022-10-16T13:47:29.173Z,18.90
2022-10-16T13:50:15.358Z,18.90
2022-10-16T13:52:42.645Z,18.80
2022-10-16T13:55:14.053Z,18.80
2022-10-16T13:57:41.667Z,18.90
2022-10-16T14:00:31.407Z,18.90
2022-10-16T14:03:15.567Z,18.80
2022-10-16T14:05:49.634Z,18.70
2022-10-16T14:08:17.106Z,18.70
2022-10-16T14:10:47.930Z,18.60
2022-10-16T14:13:21.503Z,18.60
2022-10-16T14:15:52.506Z,18.60
2022-10-16T14:18:25.683Z,18.60
2022-10-16T14:20:52.667Z,18.60
2022-10-16T14:23:33.018Z,18.40
2022-10-16T14:26:11.659Z,18.30
2022-10-16T14:28:41.439Z,18.20
2022-10-16T14:31:20.543Z,18.10
2022-10-16T14:33:47.389Z,18.00
2022-10-16T14:36:15.805Z,17.80
2022-10-16T14:38:55.425Z,17.60
2022-10-16T14:41:24.687Z,17.50
2022-10-16T14:43:57.197Z,17.50
2022-10-16T14:46:32.573Z,17.50
2022-10-16T14:49:04.480Z,17.40
2022-10-16T14:51:31.820Z,17.30
2022-10-16T14:54:00.384Z,17.60
2022-10-16T14:56:33.271Z,17.70
2022-10-16T14:59:01.743Z,17.70
2022-10-16T15:01:28.543Z,17.70
2022-10-16T15:03:56.171Z,17.70
2022-10-16T15:06:23.269Z,17.50
2022-10-16T15:08:50.285Z,17.50
2022-10-16T15:11:19.697Z,17.50
2022-10-16T15:13:47.477Z,17.40
2022-10-16T15:16:17.002Z,17.60
2022-10-16T15:18:44.111Z,17.90
2022-10-16T15:21:25.285Z,17.90
2022-10-16T15:23:52.108Z,17.90
2022-10-16T15:26:19.082Z,17.90
2022-10-16T15:28:45.909Z,17.80
2022-10-16T15:31:12.710Z,17.60
2022-10-16T15:33:40.073Z,17.60
2022-10-16T15:36:07.822Z,17.50
2022-10-16T15:38:34.830Z,17.40
2022-10-16T15:41:01.788Z,17.30
2022-10-16T15:43:29.841Z,17.50
2022-10-16T15:46:06.577Z,17.50
2022-10-16T15:48:34.482Z,17.50
2022-10-16T15:51:05.754Z,17.40
2022-10-16T15:53:32.623Z,17.20
2022-10-16T15:56:02.006Z,17.10
2022-10-16T15:58:29.539Z,17.00
2022-10-16T16:01:02.332Z,16.90
2022-10-16T16:03:30.689Z,16.80
2022-10-16T16:05:59.338Z,16.80
2022-10-16T16:08:26.185Z,16.80
2022-10-16T16:11:05.335Z,16.90
2022-10-16T16:13:32.134Z,16.80
2022-10-16T16:15:59.234Z,16.60
2022-10-16T16:18:26.250Z,16.50
2022-10-16T16:20:53.462Z,16.40
2022-10-16T16:23:20.966Z,16.30
2022-10-16T16:26:08.630Z,16.20
2022-10-16T16:28:35.762Z,16.10
2022-10-16T16:31:03.022Z,16.10
2022-10-16T16:33:29.940Z,16.00
2022-10-16T16:36:01.137Z,15.90
2022-10-16T16:38:28.887Z,16.00
2022-10-16T16:40:56.499Z,16.30
2022-10-16T16:43:27.871Z,16.10
2022-10-16T16:45:55.450Z,16.00
2022-10-16T16:48:22.847Z,16.00
2022-10-16T16:50:49.733Z,15.90
2022-10-16T16:53:16.670Z,15.70
2022-10-16T16:55:43.534Z,15.60
2022-10-16T16:58:10.426Z,15.90
2022-10-16T17:00:37.255Z,16.10
2022-10-16T17:03:04.276Z,16.00
2022-10-16T17:05:31.127Z,15.90
2022-10-16T17:07:57.890Z,15.90
2022-10-16T17:10:24.668Z,15.80
2022-10-16T17:12:51.562Z,15.70
2022-10-16T17:15:18.550Z,15.50
2022-10-16T17:17:45.495Z,15.50
2022-10-16T17:20:12.387Z,15.60
2022-10-16T17:22:39.426Z,15.70
2022-10-16T17:25:07.912Z,15.70
2022-10-16T17:27:36.395Z,15.80
2022-10-16T17:30:06.383Z,15.90
2022-10-16T17:32:33.306Z,15.80
2022-10-16T17:35:00.099Z,15.80
2022-10-16T17:37:26.963Z,15.90
2022-10-16T17:39:53.790Z,15.90
2022-10-16T17:42:20.570Z,15.80
2022-10-16T17:44:47.346Z,15.80
2022-10-16T17:47:14.146Z,15.90
2022-10-16T17:49:40.977Z,16.00
2022-10-16T17:52:07.784Z,15.80
2022-10-16T17:54:34.866Z,15.60
2022-10-16T17:57:02.073Z,15.50
2022-10-16T17:59:29.358Z,15.60
2022-10-16T18:01:56.246Z,15.70
2022-10-16T18:04:23.219Z,15.70
2022-10-16T18:06:50.080Z,15.80
2022-10-16T18:09:18.540Z,15.80
2022-10-16T18:11:45.999Z,15.60
2022-10-16T18:14:14.539Z,15.60
2022-10-16T18:16:41.878Z,15.60
2022-10-16T18:19:11.337Z,15.70
2022-10-16T18:21:38.174Z,15.80
2022-10-16T18:24:05.119Z,15.80
2022-10-16T18:26:31.954Z,15.90
2022-10-16T18:28:58.864Z,15.90
2022-10-16T18:31:26.607Z,15.80
2022-10-16T18:33:54.005Z,15.70
2022-10-16T18:36:30.810Z,15.80
2022-10-16T18:38:58.025Z,15.80
2022-10-16T18:41:25.769Z,15.70
2022-10-16T18:43:53.226Z,15.60
2022-10-16T18:46:22.004Z,15.50
2022-10-16T18:48:51.127Z,15.40
2022-10-16T18:51:40.770Z,15.20
2022-10-16T18:54:10.685Z,15.10
2022-10-16T18:56:39.000Z,15.00
2022-10-16T18:59:08.185Z,14.90
2022-10-16T19:01:38.645Z,14.90
2022-10-16T19:04:11.465Z,15.00
2022-10-16T19:06:43.594Z,14.90
2022-10-16T19:09:12.431Z,14.80
2022-10-16T19:11:41.611Z,14.80
2022-10-16T19:14:12.815Z,14.70
2022-10-16T19:16:42.727Z,14.60
2022-10-16T19:19:14.135Z,14.60
2022-10-16T19:21:41.678Z,14.60
2022-10-16T19:24:12.018Z,14.60
2022-10-16T19:26:41.208Z,14.50
2022-10-16T19:29:09.855Z,14.40
2022-10-16T19:31:36.672Z,14.40
2022-10-16T19:34:04.715Z,14.40
2022-10-16T19:36:34.250Z,14.40
2022-10-16T19:39:14.914Z,14.40
2022-10-16T19:41:42.747Z,14.50
2022-10-16T19:44:11.931Z,14.50
2022-10-16T19:46:39.002Z,14.60
2022-10-16T19:49:09.198Z,14.50
2022-10-16T19:51:36.790Z,14.40
2022-10-16T19:54:10.935Z,14.30
2022-10-16T19:56:38.329Z,14.30
2022-10-16T19:59:06.729Z,14.40
2022-10-16T20:01:34.038Z,14.50
2022-10-16T20:04:00.908Z,14.60
2022-10-16T20:06:28.135Z,14.60
2022-10-16T20:08:57.583Z,14.60
2022-10-16T20:11:27.806Z,14.30
2022-10-16T20:13:54.643Z,14.10
2022-10-16T20:16:21.711Z,13.90
2022-10-16T20:18:50.333Z,13.80
2022-10-16T20:21:20.335Z,13.70
2022-10-16T20:23:48.980Z,13.70
2022-10-16T20:26:16.535Z,13.70
2022-10-16T20:28:43.833Z,13.70
2022-10-16T20:31:18.322Z,13.70
2022-10-16T20:33:45.816Z,13.80
2022-10-16T20:36:13.996Z,13.80
2022-10-16T20:38:41.854Z,13.80
2022-10-16T20:41:09.842Z,13.80
2022-10-16T20:43:39.597Z,14.00
2022-10-16T20:46:10.483Z,14.00
2022-10-16T20:48:41.115Z,13.90
2022-10-16T20:51:18.234Z,13.80
2022-10-16T20:53:46.760Z,13.80
2022-10-16T20:56:15.941Z,13.70
2022-10-16T20:58:42.756Z,13.70
2022-10-16T21:01:12.587Z,13.60
2022-10-16T21:03:39.507Z,13.70
2022-10-16T21:06:08.670Z,13.70
2022-10-16T21:08:37.038Z,13.60
2022-10-16T21:11:11.417Z,13.70
2022-10-16T21:13:38.971Z,13.70
2022-10-16T21:16:07.169Z,13.70
2022-10-16T21:18:34.534Z,13.70
2022-10-16T21:21:01.276Z,13.70
2022-10-16T21:23:28.229Z,13.70
2022-10-16T21:25:55.157Z,13.80
2022-10-16T21:28:22.043Z,13.70
2022-10-16T21:30:48.870Z,13.70
2022-10-16T21:33:15.636Z,13.70
2022-10-16T21:35:42.394Z,14.00
2022-10-16T21:38:09.183Z,14.20
2022-10-16T21:40:36.023Z,14.20
2022-10-16T21:43:04.802Z,14.20
2022-10-16T21:45:33.955Z,14.30
2022-10-16T21:48:00.829Z,14.30
2022-10-16T21:50:27.593Z,14.40
2022-10-16T21:52:54.386Z,14.30
2022-10-16T21:55:21.198Z,14.30
2022-10-16T21:57:48.039Z,14.50
2022-10-16T22:00:15.277Z,14.50
2022-10-16T22:02:42.070Z,14.40
2022-10-16T22:05:09.429Z,14.40
2022-10-16T22:07:36.269Z,14.60
2022-10-16T22:10:03.186Z,14.60
2022-10-16T22:12:30.165Z,14.60
2022-10-16T22:14:56.938Z,14.60
2022-10-16T22:17:23.704Z,14.60
2022-10-16T22:19:50.481Z,14.60
2022-10-16T22:22:17.227Z,14.50
2022-10-16T22:24:44.107Z,14.60
2022-10-16T22:27:10.916Z,14.50
2022-10-16T22:29:37.745Z,14.40
2022-10-16T22:32:04.738Z,14.40
2022-10-16T22:34:31.551Z,14.40
2022-10-16T22:36:58.342Z,14.40
2022-10-16T22:39:25.122Z,14.40
2022-10-16T22:41:51.861Z,14.30
2022-10-16T22:44:18.641Z,14.50
2022-10-16T22:46:45.517Z,14.60
2022-10-16T22:49:12.252Z,14.60
2022-10-16T22:51:39.107Z,14.70
2022-10-16T22:54:05.963Z,14.90
2022-10-16T22:56:32.755Z,14.90
2022-10-16T22:58:59.517Z,15.00
2022-10-16T23:01:30.231Z,15.00
2022-10-16T23:03:57.306Z,14.90
2022-10-16T23:06:24.536Z,15.00
2022-10-16T23:08:52.900Z,15.10
2022-10-16T23:11:19.897Z,15.10
2022-10-16T23:13:47.015Z,15.10
2022-10-16T23:16:16.092Z,15.10
2022-10-16T23:18:43.941Z,15.00
2022-10-16T23:21:19.515Z,14.90
2022-10-16T23:23:46.355Z,14.90
2022-10-16T23:26:15.294Z,14.80
2022-10-16T23:28:42.563Z,14.70
2022-10-16T23:31:10.554Z,14.80
2022-10-16T23:33:38.291Z,14.90
2022-10-16T23:36:07.777Z,14.70
2022-10-16T23:38:34.701Z,14.80
2022-10-16T23:41:01.627Z,14.80
2022-10-16T23:43:28.817Z,14.80
2022-10-16T23:45:55.802Z,14.70
2022-10-16T23:48:22.730Z,14.70
2022-10-16T23:50:49.520Z,14.60
2022-10-16T23:53:16.556Z,14.50
2022-10-16T23:55:43.486Z,14.40
2022-10-16T23:58:10.433Z,14.30
